createdAt,value
2017-09-25T00:01:13.725Z,64.10
2017-09-25T00:03:41.184Z,63.70
2017-09-25T00:06:08.680Z,64.60
2017-09-25T00:08:36.172Z,64.40
2017-09-25T00:11:04.412Z,63.70
2017-09-25T00:13:31.907Z,63.70
2017-09-25T06:10:00.913Z,66.70
2017-09-25T06:12:28.383Z,64.80
2017-09-25T06:14:55.871Z,64.40
2017-09-25T06:17:23.370Z,64.20
2017-09-25T06:19:50.880Z,64.40
2017-09-25T06:22:18.347Z,64.50
2017-09-25T06:24:45.852Z,64.40
2017-09-25T06:27:13.348Z,64.70
2017-09-25T06:29:40.836Z,64.30
2017-09-25T06:32:08.295Z,64.60
2017-09-25T06:34:35.769Z,64.90
2017-09-25T06:37:04.030Z,65.70
2017-09-25T06:39:31.500Z,65.60
2017-09-25T06:41:59.775Z,66.50
2017-09-25T06:44:28.036Z,63.60
2017-09-25T06:46:55.547Z,63.60
2017-09-25T06:49:23.059Z,62.90
2017-09-25T06:51:51.336Z,61.90
2017-09-25T06:54:18.827Z,61.90
2017-09-25T06:56:46.332Z,61.80
2017-09-25T06:59:13.819Z,62.10
2017-09-25T07:01:42.107Z,66.50
2017-09-25T07:04:10.402Z,63.30
2017-09-25T07:06:37.909Z,63.20
2017-09-25T07:09:05.482Z,63.20
2017-09-25T07:11:32.987Z,62.10
2017-09-25T07:14:00.492Z,62.50
2017-09-25T07:16:28.008Z,62.50
2017-09-25T07:18:55.528Z,62.10
2017-09-25T07:21:23.816Z,62.60
2017-09-25T07:23:51.354Z,62.60
2017-09-25T07:26:18.847Z,64.30
2017-09-25T07:28:46.364Z,63.80
2017-09-25T07:31:13.837Z,65.00
2017-09-25T07:33:42.123Z,65.00
2017-09-25T07:36:10.401Z,65.70
2017-09-25T07:38:38.635Z,64.90
2017-09-25T07:41:06.115Z,64.90
2017-09-25T07:43:33.625Z,65.10
2017-09-25T07:46:01.145Z,64.50
2017-09-25T07:48:29.435Z,64.90
2017-09-25T07:50:57.722Z,65.00
2017-09-25T07:53:25.211Z,65.00
2017-09-25T07:55:52.709Z,64.50
2017-09-25T07:58:20.208Z,64.20
2017-09-25T08:00:47.695Z,64.70
2017-09-25T08:03:15.245Z,64.50
2017-09-25T08:05:42.742Z,65.50
2017-09-25T08:08:10.229Z,66.30
2017-09-25T08:10:37.750Z,65.90
2017-09-25T08:13:05.266Z,65.40
2017-09-25T08:15:32.780Z,65.70
2017-09-25T08:18:00.260Z,65.10
2017-09-25T08:20:28.535Z,63.80
2017-09-25T08:22:56.819Z,64.10
2017-09-25T08:25:25.088Z,63.80
2017-09-25T08:27:53.349Z,63.80
2017-09-25T08:30:20.860Z,63.80
2017-09-25T08:32:48.354Z,64.20
2017-09-25T08:35:15.837Z,64.20
2017-09-25T08:37:44.076Z,63.20
2017-09-25T08:40:11.601Z,63.10
2017-09-25T08:42:39.080Z,63.50
2017-09-25T08:45:06.612Z,64.00
2017-09-25T08:47:34.083Z,64.00
2017-09-25T08:50:02.211Z,63.50
2017-09-25T08:52:29.699Z,63.00
2017-09-25T08:54:57.210Z,63.20
2017-09-25T08:57:24.709Z,62.70
2017-09-25T08:59:52.958Z,62.70
2017-09-25T09:02:20.462Z,62.70
2017-09-25T09:04:47.961Z,62.10
2017-09-25T09:07:15.475Z,63.40
2017-09-25T09:09:42.972Z,63.50
2017-09-25T09:12:10.469Z,63.20
2017-09-25T09:14:38.711Z,63.10
2017-09-25T09:17:06.226Z,63.00
2017-09-25T09:19:33.727Z,61.60
2017-09-25T09:22:01.229Z,62.80
2017-09-25T09:24:29.510Z,61.80
2017-09-25T09:26:57.006Z,61.80
2017-09-25T09:29:24.505Z,62.10
2017-09-25T09:31:52.010Z,61.40
2017-09-25T09:34:19.519Z,60.30
2017-09-25T09:36:46.994Z,61.30
2017-09-25T09:39:15.282Z,60.40
2017-09-25T09:41:43.540Z,58.20
2017-09-25T09:44:11.015Z,58.10
2017-09-25T09:46:39.291Z,59.30
2017-09-25T09:49:07.536Z,57.70
2017-09-25T09:51:35.048Z,57.70
2017-09-25T09:54:02.544Z,57.40
2017-09-25T09:56:30.020Z,57.20
2017-09-25T09:58:57.550Z,55.30
2017-09-25T10:01:25.033Z,54.10
2017-09-25T10:03:52.569Z,54.10
2017-09-25T10:06:20.077Z,51.90
2017-09-25T10:08:48.358Z,51.50
2017-09-25T10:11:16.620Z,51.60
2017-09-25T10:13:44.128Z,51.60
2017-09-25T10:16:11.596Z,52.90
2017-09-25T10:18:39.107Z,52.00
2017-09-25T10:21:07.360Z,49.30
2017-09-25T10:23:34.883Z,49.30
2017-09-25T10:26:02.370Z,51.20
2017-09-25T10:28:29.825Z,48.50
2017-09-25T10:30:57.400Z,48.70
2017-09-25T10:33:24.855Z,49.00
2017-09-25T10:35:52.361Z,50.00
2017-09-25T10:38:19.838Z,51.30
2017-09-25T10:40:47.343Z,51.30
2017-09-25T10:43:14.855Z,49.30
2017-09-25T10:45:42.330Z,47.50
2017-09-25T10:48:09.817Z,49.50
2017-09-25T10:50:37.291Z,50.80
2017-09-25T10:53:05.519Z,49.70
2017-09-25T10:55:33.011Z,49.70
2017-09-25T10:58:01.256Z,48.10
2017-09-25T11:00:28.751Z,47.90
2017-09-25T11:02:57.019Z,48.20
2017-09-25T11:05:24.507Z,48.20
2017-09-25T11:07:51.991Z,48.40
2017-09-25T11:10:19.468Z,47.60
2017-09-25T11:12:46.967Z,46.50
2017-09-25T11:15:15.190Z,46.30
2017-09-25T11:17:42.690Z,46.10
2017-09-25T11:20:10.928Z,47.70
2017-09-25T11:22:38.420Z,48.20
2017-09-25T11:25:05.902Z,47.20
2017-09-25T11:27:34.159Z,48.00
2017-09-25T11:30:01.627Z,47.90
2017-09-25T11:32:29.907Z,47.00
2017-09-25T11:34:57.420Z,47.00
2017-09-25T11:37:24.904Z,45.90
2017-09-25T11:39:52.396Z,46.00
2017-09-25T11:42:19.896Z,47.30
2017-09-25T11:44:47.436Z,46.20
2017-09-25T11:47:14.922Z,45.20
2017-09-25T11:49:42.384Z,43.90
2017-09-25T11:52:09.911Z,45.10
2017-09-25T11:54:37.384Z,43.30
2017-09-25T11:57:04.872Z,41.70
2017-09-25T11:59:33.880Z,43.40
2017-09-25T12:02:01.390Z,43.40
2017-09-25T12:04:28.884Z,41.70
2017-09-25T12:06:56.388Z,41.10
2017-09-25T12:09:23.863Z,41.60
2017-09-25T12:11:51.327Z,40.70
2017-09-25T12:14:18.832Z,32.50
2017-09-25T12:16:46.313Z,33.00
2017-09-25T12:19:14.593Z,32.40
2017-09-25T12:21:42.080Z,32.60
2017-09-25T12:24:09.564Z,32.60
2017-09-25T12:26:37.067Z,32.60
2017-09-25T12:29:05.299Z,31.90
2017-09-25T12:31:32.795Z,31.90
2017-09-25T12:34:01.031Z,31.90
2017-09-25T12:36:28.491Z,31.90
2017-09-25T12:38:55.991Z,31.70
2017-09-25T12:41:24.261Z,32.70
2017-09-25T12:43:52.518Z,32.50
2017-09-25T12:46:19.983Z,32.30
2017-09-25T12:48:47.464Z,31.70
2017-09-25T12:51:14.938Z,33.40
2017-09-25T12:53:42.431Z,32.40
2017-09-25T12:56:09.919Z,32.80
2017-09-25T12:58:37.414Z,32.20
2017-09-25T13:01:04.888Z,31.70
2017-09-25T13:03:32.347Z,32.00
2017-09-25T13:05:59.852Z,32.50
2017-09-25T13:08:27.328Z,32.00
2017-09-25T13:10:55.599Z,31.70
2017-09-25T13:13:23.836Z,31.70
2017-09-25T13:15:51.324Z,31.50
2017-09-25T13:18:19.571Z,31.90
2017-09-25T13:20:47.095Z,31.90
2017-09-25T13:23:14.573Z,31.20
2017-09-25T13:25:42.052Z,31.00
2017-09-25T13:28:09.535Z,30.80
2017-09-25T13:30:37.771Z,31.70
2017-09-25T13:33:05.268Z,31.70
2017-09-25T13:35:33.513Z,31.80
2017-09-25T13:38:00.980Z,31.70
2017-09-25T13:40:28.497Z,31.30
2017-09-25T13:42:56.042Z,31.30
2017-09-25T13:45:23.659Z,31.40
2017-09-25T13:47:51.139Z,31.40
2017-09-25T13:50:19.409Z,31.00
2017-09-25T13:52:46.879Z,31.20
2017-09-25T13:55:15.161Z,32.40
2017-09-25T13:57:43.429Z,32.00
2017-09-25T14:02:44.592Z,32.40
2017-09-25T14:05:12.853Z,31.90
2017-09-25T14:07:40.371Z,31.90
2017-09-25T14:10:07.846Z,31.20
2017-09-25T14:12:35.337Z,31.40
2017-09-25T14:15:02.810Z,31.70
2017-09-25T14:17:31.197Z,31.80
2017-09-25T14:19:58.633Z,31.80
2017-09-25T14:22:26.143Z,31.60
2017-09-25T14:24:53.648Z,32.00
2017-09-25T14:27:21.155Z,31.50
2017-09-25T14:29:48.671Z,32.00
2017-09-25T14:32:16.124Z,32.60
2017-09-25T14:34:43.620Z,31.70
2017-09-25T14:37:11.092Z,31.30
2017-09-25T14:39:38.604Z,31.40
2017-09-25T14:42:06.059Z,31.10
2017-09-25T14:44:33.531Z,30.70
2017-09-25T14:47:01.784Z,31.90
2017-09-25T14:49:29.263Z,31.90
2017-09-25T14:51:57.540Z,31.40
2017-09-25T14:54:25.806Z,31.60
2017-09-25T14:56:53.305Z,31.60
2017-09-25T14:59:20.793Z,31.40
2017-09-25T15:01:48.260Z,31.50
2017-09-25T15:04:15.773Z,31.60
2017-09-25T15:06:43.271Z,32.10
2017-09-25T15:09:10.802Z,31.30
2017-09-25T15:11:38.284Z,31.10
2017-09-25T15:14:05.788Z,31.50
2017-09-25T15:16:34.054Z,31.60
2017-09-25T15:19:01.553Z,31.40
2017-09-25T15:21:29.041Z,31.80
2017-09-25T15:23:56.511Z,32.20
2017-09-25T15:26:24.034Z,31.70
2017-09-25T15:28:51.535Z,31.60
2017-09-25T15:31:19.081Z,32.00
2017-09-25T15:33:47.144Z,32.70
2017-09-25T15:36:14.948Z,31.40
2017-09-25T15:38:43.215Z,31.10
2017-09-25T15:41:10.713Z,31.10
2017-09-25T15:43:38.323Z,32.00
2017-09-25T15:46:05.819Z,31.60
2017-09-25T15:48:34.102Z,32.60
2017-09-25T15:51:02.328Z,32.00
2017-09-25T15:53:29.949Z,32.00
2017-09-25T15:55:57.463Z,31.90
2017-09-25T15:58:24.961Z,32.80
2017-09-25T16:00:54.992Z,36.00
2017-09-25T16:03:22.455Z,35.80
2017-09-25T16:05:50.001Z,33.60
2017-09-25T16:08:17.487Z,34.40
2017-09-25T16:10:45.046Z,34.30
2017-09-25T16:13:12.596Z,34.00
2017-09-25T16:15:40.068Z,40.20
2017-09-25T16:18:07.575Z,51.40
2017-09-25T16:20:35.856Z,38.50
2017-09-25T16:23:04.115Z,39.20
2017-09-25T16:25:31.611Z,39.00
2017-09-25T16:27:59.079Z,42.40
2017-09-25T16:30:26.560Z,45.00
2017-09-25T16:32:54.051Z,44.20
2017-09-25T16:35:21.571Z,44.90
2017-09-25T16:37:49.028Z,45.50
2017-09-25T16:40:16.529Z,45.80
2017-09-25T16:42:44.000Z,40.10
2017-09-25T16:45:12.255Z,44.00
2017-09-25T16:47:39.732Z,44.00
2017-09-25T16:50:08.005Z,41.20
2017-09-25T16:52:35.457Z,41.20
2017-09-25T16:55:02.948Z,42.40
2017-09-25T16:57:30.455Z,44.60
2017-09-25T16:59:57.943Z,45.70
2017-09-25T17:02:26.260Z,52.30
2017-09-25T17:04:53.718Z,52.20
2017-09-25T17:07:21.182Z,54.40
2017-09-25T17:09:48.697Z,56.80
2017-09-25T17:12:16.950Z,60.00
2017-09-25T17:14:44.452Z,60.00
2017-09-25T17:17:12.005Z,60.60
2017-09-25T17:19:39.932Z,60.90
2017-09-25T17:22:07.583Z,61.10
2017-09-25T17:24:35.424Z,60.90
2017-09-25T17:27:03.179Z,61.30
2017-09-25T17:29:30.948Z,61.60
2017-09-25T17:31:58.729Z,61.80
2017-09-25T17:34:26.524Z,61.30
2017-09-25T17:36:55.375Z,61.50
2017-09-25T17:39:23.250Z,61.40
2017-09-25T17:41:52.747Z,61.10
2017-09-25T17:44:20.288Z,61.20
2017-09-25T17:46:48.526Z,61.30
2017-09-25T17:49:16.031Z,61.20
2017-09-25T17:51:43.496Z,61.40
2017-09-25T17:54:10.982Z,61.60
2017-09-25T17:56:38.480Z,61.70
2017-09-25T17:59:06.762Z,61.70
2017-09-25T18:01:35.012Z,61.70
2017-09-25T18:04:02.565Z,61.60
2017-09-25T18:06:30.071Z,61.90
2017-09-25T18:08:57.560Z,62.20
2017-09-25T18:11:25.062Z,62.30
2017-09-25T18:13:52.561Z,62.50
2017-09-25T18:16:20.059Z,62.60
2017-09-25T18:18:47.544Z,62.50
2017-09-25T18:21:15.792Z,62.60
2017-09-25T18:23:43.282Z,62.60
2017-09-25T18:26:10.862Z,62.70
2017-09-25T18:28:39.244Z,62.80
2017-09-25T18:31:08.312Z,62.90
2017-09-25T18:33:36.646Z,62.90
2017-09-25T18:36:04.128Z,62.80
2017-09-25T18:38:31.656Z,63.50
2017-09-25T18:40:59.163Z,63.50
2017-09-25T18:43:26.642Z,63.50
2017-09-25T18:45:55.768Z,63.60
2017-09-25T18:48:23.325Z,63.50
2017-09-25T18:50:50.832Z,63.50
2017-09-25T18:53:18.331Z,63.50
2017-09-25T18:55:45.839Z,63.40
2017-09-25T18:58:13.346Z,63.30
2017-09-25T19:00:41.054Z,63.20
2017-09-25T19:03:08.540Z,63.50
2017-09-25T19:05:36.787Z,64.30
2017-09-25T19:08:04.365Z,64.20
2017-09-25T19:10:32.802Z,64.30
2017-09-25T19:13:00.284Z,64.10
2017-09-25T19:15:27.783Z,63.90
2017-09-25T19:17:56.049Z,63.80
2017-09-25T19:20:23.662Z,63.70
2017-09-25T19:22:51.152Z,63.80
2017-09-25T19:25:18.660Z,63.90
2017-09-25T19:27:46.174Z,64.00
2017-09-25T19:30:13.711Z,64.00
2017-09-25T19:32:41.187Z,63.80
2017-09-25T19:35:08.684Z,63.80
2017-09-25T19:37:36.231Z,63.90
2017-09-25T19:40:03.727Z,64.30
2017-09-25T19:42:31.242Z,64.40
2017-09-25T19:44:58.771Z,64.10
2017-09-25T19:47:26.293Z,63.90
2017-09-25T19:49:55.287Z,64.00
2017-09-25T19:52:22.817Z,63.80
2017-09-25T19:54:56.398Z,63.90
2017-09-25T20:00:29.477Z,64.20
2017-09-25T20:02:56.974Z,64.20
2017-09-25T20:05:25.289Z,64.30
2017-09-25T20:07:53.556Z,64.00
2017-09-25T20:10:26.408Z,64.00
2017-09-25T20:12:53.882Z,63.90
2017-09-25T20:15:27.962Z,64.10
2017-09-25T20:17:55.460Z,63.90
2017-09-25T20:20:22.959Z,63.90
2017-09-25T20:22:50.456Z,64.30
2017-09-25T20:25:17.943Z,64.20
2017-09-25T20:27:45.495Z,64.30
2017-09-25T20:30:13.744Z,64.10
2017-09-25T20:32:41.237Z,64.10
2017-09-25T20:35:09.483Z,64.60
2017-09-25T20:37:37.040Z,64.60
2017-09-25T20:40:04.532Z,65.20
2017-09-25T20:42:38.429Z,65.30
2017-09-25T20:45:05.898Z,65.30
2017-09-25T20:47:34.139Z,65.20
2017-09-25T20:50:02.412Z,65.00
2017-09-25T20:52:29.902Z,65.00
2017-09-25T20:54:58.176Z,65.30
2017-09-25T20:57:25.660Z,65.30
2017-09-25T20:59:53.955Z,66.20
2017-09-25T21:02:21.475Z,66.10
2017-09-25T21:04:49.756Z,65.80
2017-09-25T21:07:17.259Z,65.70
2017-09-25T21:09:44.755Z,66.00
2017-09-25T21:12:12.290Z,66.60
2017-09-25T21:14:39.780Z,66.40
2017-09-25T21:17:07.287Z,66.30
2017-09-25T21:19:34.778Z,66.30
2017-09-25T21:22:02.291Z,66.70
2017-09-25T21:24:29.789Z,66.60
2017-09-25T21:27:16.160Z,66.80
2017-09-25T21:29:43.648Z,67.20
2017-09-25T21:32:11.149Z,66.90
2017-09-25T21:34:39.395Z,67.10
2017-09-25T21:37:06.892Z,67.10
2017-09-25T21:39:35.151Z,67.90
2017-09-25T21:42:02.631Z,67.80
2017-09-25T21:44:30.139Z,67.60
2017-09-25T21:46:57.651Z,67.60
2017-09-25T21:49:25.874Z,67.30
2017-09-25T21:51:53.391Z,67.30
2017-09-25T21:54:20.886Z,67.40
2017-09-25T21:56:48.396Z,67.50
2017-09-25T21:59:16.650Z,67.70
2017-09-25T22:01:44.181Z,67.70
2017-09-25T22:04:11.689Z,68.10
2017-09-25T22:06:39.987Z,68.50
2017-09-25T22:09:07.511Z,68.50
2017-09-25T22:11:35.751Z,69.40
2017-09-25T22:14:03.228Z,69.30
2017-09-25T22:16:30.731Z,68.60
2017-09-25T22:18:58.963Z,67.40
2017-09-25T22:21:26.472Z,67.30
2017-09-25T22:23:53.943Z,67.50
2017-09-25T22:26:21.468Z,67.50
2017-09-25T22:28:49.689Z,67.60
2017-09-25T22:31:17.211Z,67.60
2017-09-25T22:33:45.470Z,68.00
2017-09-25T22:36:12.999Z,67.90
2017-09-25T22:38:40.476Z,68.30
2017-09-25T22:41:07.995Z,68.40
2017-09-25T22:46:40.309Z,70.50
2017-09-25T22:49:07.795Z,71.40
2017-09-25T22:51:35.311Z,71.70
2017-09-25T22:54:02.814Z,71.00
2017-09-25T22:56:30.284Z,69.40
2017-09-25T22:58:58.544Z,68.20
2017-09-25T23:01:26.023Z,68.10
2017-09-25T23:03:56.940Z,67.70
2017-09-25T23:06:24.423Z,67.60
2017-09-25T23:08:52.643Z,67.20
2017-09-25T23:11:20.161Z,67.20
2017-09-25T23:13:48.396Z,67.00
2017-09-25T23:16:15.913Z,66.90
2017-09-25T23:18:43.420Z,66.70
2017-09-25T23:21:10.931Z,66.60
2017-09-25T23:23:38.403Z,67.30
2017-09-25T23:26:05.895Z,67.10
2017-09-25T23:28:33.380Z,66.60
2017-09-25T23:31:01.611Z,67.60
2017-09-25T23:33:29.110Z,67.50
2017-09-25T23:35:56.621Z,67.80
2017-09-25T23:38:24.131Z,67.40
2017-09-25T23:40:51.598Z,67.10
2017-09-25T23:43:19.854Z,66.70
2017-09-25T23:45:47.356Z,66.70
2017-09-25T23:48:14.831Z,67.20
2017-09-25T23:50:42.319Z,66.80
2017-09-25T23:53:09.811Z,66.70
2017-09-25T23:55:38.068Z,67.00
2017-09-25T23:58:05.543Z,67.00
